Time;durP1;ratioP1;P1;durP2;ratioP2;P2;SDS_P1;SDS_P2;PMS_P1;PMS_P2;Temp;Humidity;BMP_temperature;BMP_pressure;BME280_temperature;BME280_humidity;BME280_pressure;Samples;Min_cycle;Max_cycle;Signal;HPM_P1;HPM_P2
2024/04/17 00:01:42;;;;;;;4.47;1.65;;;;;;;;;;5447905;26;20003;-67
2024/04/17 00:04:08;;;;;;;6.05;2.10;;;;;;;;;;5448259;26;20006;-67
2024/04/17 00:06:33;;;;;;;5.90;2.20;;;;;;;;;;5438857;26;19991;-68
2024/04/17 00:08:58;;;;;;;6.72;2.20;;;;;;;;;;5444993;26;20434;-67
2024/04/17 00:11:24;;;;;;;4.60;2.25;;;;;;;;;;5447841;26;19991;-66
2024/04/17 00:13:49;;;;;;;5.78;2.10;;;;;;;;;;5447803;26;20047;-66
2024/04/17 00:16:14;;;;;;;6.63;2.28;;;;;;;;;;5446584;26;20072;-67
2024/04/17 00:18:40;;;;;;;4.35;2.00;;;;;;;;;;5433451;26;20002;-68
2024/04/17 00:21:05;;;;;;;5.57;2.28;;;;;;;;;;5447018;26;20050;-68
2024/04/17 00:23:30;;;;;;;5.53;2.30;;;;;;;;;;5448767;26;20009;-67
2024/04/17 00:25:55;;;;;;;6.65;2.40;;;;;;;;;;5448101;26;19999;-69
2024/04/17 00:28:24;;;;;;;6.28;2.40;;;;;;;;;;5447598;26;19999;-66
2024/04/17 00:30:50;;;;;;;5.32;1.98;;;;;;;;;;5448020;26;20005;-67
2024/04/17 00:33:15;;;;;;;5.75;2.03;;;;;;;;;;5447538;26;19999;-68
2024/04/17 00:35:41;;;;;;;5.07;2.10;;;;;;;;;;5443983;26;20000;-68
2024/04/17 00:38:06;;;;;;;5.50;1.85;;;;;;;;;;5442769;26;20006;-68
2024/04/17 00:40:37;;;;;;;6.07;2.65;;;;;;;;;;5447242;26;20067;-68
2024/04/17 00:43:02;;;;;;;5.03;2.10;;;;;;;;;;5447568;26;20018;-68
2024/04/17 00:45:29;;;;;;;4.68;2.15;;;;;;;;;;5447734;26;20003;-68
2024/04/17 00:47:54;;;;;;;4.80;2.03;;;;;;;;;;5447462;26;20007;-67
2024/04/17 00:50:20;;;;;;;6.60;2.20;;;;;;;;;;5446235;26;20075;-68
2024/04/17 00:52:45;;;;;;;6.85;2.00;;;;;;;;;;5447874;26;20010;-67
2024/04/17 00:55:10;;;;;;;5.63;2.40;;;;;;;;;;5426589;26;20003;-68
2024/04/17 00:57:35;;;;;;;6.75;2.50;;;;;;;;;;5441373;26;20007;-68
2024/04/17 01:00:01;;;;;;;5.35;2.10;;;;;;;;;;5447537;26;20231;-68
2024/04/17 01:02:26;;;;;;;6.70;2.72;;;;;;;;;;5447181;26;20075;-68
2024/04/17 01:04:52;;;;;;;5.97;2.33;;;;;;;;;;5448564;26;20429;-67
2024/04/17 01:07:17;;;;;;;6.13;2.60;;;;;;;;;;5448473;26;19994;-68
2024/04/17 01:09:54;;;;;;;5.55;2.15;;;;;;;;;;5417642;26;20017;-68
2024/04/17 01:12:19;;;;;;;5.25;2.13;;;;;;;;;;5451613;26;20049;-68
2024/04/17 01:14:45;;;;;;;6.00;2.63;;;;;;;;;;5466753;26;19999;-67
2024/04/17 01:17:10;;;;;;;5.30;2.47;;;;;;;;;;5449884;26;20081;-67
2024/04/17 01:19:35;;;;;;;4.18;1.85;;;;;;;;;;5443041;26;20000;-68
2024/04/17 01:22:01;;;;;;;5.40;2.30;;;;;;;;;;5439571;26;20477;-67
2024/04/17 01:24:26;;;;;;;5.20;2.00;;;;;;;;;;5450843;26;20778;-68
2024/04/17 01:27:00;;;;;;;4.67;2.13;;;;;;;;;;5450194;26;20276;-67
2024/04/17 01:29:25;;;;;;;5.28;2.20;;;;;;;;;;5449195;26;20333;-67
2024/04/17 01:31:50;;;;;;;5.40;2.43;;;;;;;;;;5448852;26;20014;-67
2024/04/17 01:34:16;;;;;;;7.17;2.50;;;;;;;;;;5451448;26;20231;-67
2024/04/17 01:36:41;;;;;;;4.03;2.10;;;;;;;;;;5441163;26;20236;-68
2024/04/17 01:39:06;;;;;;;3.47;2.10;;;;;;;;;;5450490;26;20573;-67
2024/04/17 01:41:31;;;;;;;7.43;2.27;;;;;;;;;;5449116;26;20258;-67
2024/04/17 01:43:57;;;;;;;4.30;2.00;;;;;;;;;;5448826;26;20334;-67
2024/04/17 01:46:22;;;;;;;6.53;2.33;;;;;;;;;;5453065;26;20225;-67
2024/04/17 01:48:47;;;;;;;5.97;2.42;;;;;;;;;;5449754;26;20268;-68
2024/04/17 01:51:13;;;;;;;7.10;2.77;;;;;;;;;;5450025;26;20352;-67
2024/04/17 01:53:38;;;;;;;6.93;2.45;;;;;;;;;;5442064;26;20233;-67
2024/04/17 01:56:03;;;;;;;5.03;2.07;;;;;;;;;;5449876;26;20003;-67
2024/04/17 01:58:28;;;;;;;5.22;2.22;;;;;;;;;;5450229;26;20356;-67
2024/04/17 02:00:54;;;;;;;4.43;2.73;;;;;;;;;;5449066;26;20309;-67
2024/04/17 02:03:19;;;;;;;5.97;2.50;;;;;;;;;;5450907;26;20272;-66
2024/04/17 02:05:44;;;;;;;7.33;2.33;;;;;;;;;;5449128;26;20294;-68
2024/04/17 02:08:10;;;;;;;6.43;2.25;;;;;;;;;;5450167;26;20659;-67
2024/04/17 02:10:35;;;;;;;5.20;2.50;;;;;;;;;;5450105;26;20006;-68
2024/04/17 02:13:01;;;;;;;5.35;2.80;;;;;;;;;;5438966;26;20312;-68
2024/04/17 02:15:26;;;;;;;4.10;2.10;;;;;;;;;;5447334;26;20450;-68
2024/04/17 02:17:51;;;;;;;6.93;2.60;;;;;;;;;;5448790;26;21099;-68
2024/04/17 02:20:16;;;;;;;5.43;2.60;;;;;;;;;;5401564;26;20228;-68
2024/04/17 02:22:42;;;;;;;4.90;2.23;;;;;;;;;;5450512;26;20260;-68
2024/04/17 02:25:07;;;;;;;6.63;2.47;;;;;;;;;;5449053;26;20248;-68
2024/04/17 02:27:32;;;;;;;6.87;2.70;;;;;;;;;;5449659;26;20232;-68
2024/04/17 02:29:57;;;;;;;6.73;2.90;;;;;;;;;;5448515;26;20573;-68
2024/04/17 02:32:32;;;;;;;4.83;2.27;;;;;;;;;;5418758;26;20236;-65
2024/04/17 02:34:57;;;;;;;6.00;2.38;;;;;;;;;;5435585;26;20281;-64
2024/04/17 02:37:22;;;;;;;5.27;2.53;;;;;;;;;;5413088;26;20007;-65
2024/04/17 02:39:48;;;;;;;5.73;2.33;;;;;;;;;;5416006;26;19998;-63
2024/04/17 02:42:13;;;;;;;5.37;2.57;;;;;;;;;;5434756;26;20612;-64
2024/04/17 02:44:40;;;;;;;7.10;2.73;;;;;;;;;;5439448;26;20232;-64
2024/04/17 02:47:05;;;;;;;5.32;2.70;;;;;;;;;;5437636;26;20966;-65
2024/04/17 02:49:30;;;;;;;6.97;2.75;;;;;;;;;;5437129;26;19995;-65
2024/04/17 02:51:56;;;;;;;5.30;2.30;;;;;;;;;;5439441;26;20011;-64
2024/04/17 02:54:21;;;;;;;5.17;2.57;;;;;;;;;;5436769;26;20283;-64
2024/04/17 02:56:46;;;;;;;5.13;2.60;;;;;;;;;;5423432;26;20336;-65
2024/04/17 02:59:11;;;;;;;7.17;2.63;;;;;;;;;;5414709;26;20004;-66
2024/04/17 03:01:37;;;;;;;4.07;2.50;;;;;;;;;;5415548;26;19995;-65
2024/04/17 03:04:02;;;;;;;5.13;2.70;;;;;;;;;;5415790;26;22347;-64
2024/04/17 03:06:27;;;;;;;5.78;2.50;;;;;;;;;;5413853;26;20266;-65
2024/04/17 03:08:53;;;;;;;5.23;2.50;;;;;;;;;;5416531;26;19996;-65
2024/04/17 03:11:18;;;;;;;5.57;2.70;;;;;;;;;;5414680;26;20251;-64
2024/04/17 03:13:53;;;;;;;3.92;2.58;;;;;;;;;;5414813;26;20233;-66
2024/04/17 03:16:18;;;;;;;6.25;2.75;;;;;;;;;;5412811;26;20010;-66
2024/04/17 03:18:43;;;;;;;10.43;3.80;;;;;;;;;;5417483;26;19999;-64
2024/04/17 03:21:09;;;;;;;7.03;3.88;;;;;;;;;;5418104;26;19999;-64
2024/04/17 03:23:34;;;;;;;9.85;3.95;;;;;;;;;;5414363;26;20007;-64
2024/04/17 03:25:59;;;;;;;8.48;3.30;;;;;;;;;;5418123;26;20000;-64
2024/04/17 03:28:25;;;;;;;8.25;3.83;;;;;;;;;;5415053;26;19995;-63
2024/04/17 03:30:50;;;;;;;10.70;3.80;;;;;;;;;;5410171;26;20013;-64
2024/04/17 03:33:15;;;;;;;7.75;3.83;;;;;;;;;;5416332;26;19995;-63
2024/04/17 03:35:41;;;;;;;8.02;3.60;;;;;;;;;;5417110;26;20129;-64
2024/04/17 03:38:06;;;;;;;11.85;4.05;;;;;;;;;;5416653;26;20390;-63
2024/04/17 03:40:31;;;;;;;9.68;4.40;;;;;;;;;;5416460;26;20195;-63
2024/04/17 03:42:57;;;;;;;10.65;3.45;;;;;;;;;;5417051;26;20441;-63
2024/04/17 03:45:22;;;;;;;7.82;3.70;;;;;;;;;;5417972;26;20015;-64
2024/04/17 03:47:47;;;;;;;9.38;4.18;;;;;;;;;;5416242;26;20010;-64
2024/04/17 03:50:13;;;;;;;12.50;4.32;;;;;;;;;;5416281;26;20025;-64
2024/04/17 03:52:38;;;;;;;9.27;4.20;;;;;;;;;;5414437;26;20007;-64
2024/04/17 03:55:03;;;;;;;9.45;3.70;;;;;;;;;;5412841;26;19999;-64
2024/04/17 03:57:29;;;;;;;8.93;3.60;;;;;;;;;;5415009;26;19996;-65
2024/04/17 03:59:55;;;;;;;9.95;4.05;;;;;;;;;;5414697;26;20011;-66
2024/04/17 04:02:20;;;;;;;9.80;3.42;;;;;;;;;;5444366;26;20035;-64
2024/04/17 04:04:45;;;;;;;6.90;3.40;;;;;;;;;;5418653;26;20000;-66
2024/04/17 04:07:11;;;;;;;7.55;3.72;;;;;;;;;;5417643;26;20032;-68
2024/04/17 04:09:36;;;;;;;10.05;3.85;;;;;;;;;;5414216;26;20060;-68
2024/04/17 04:12:02;;;;;;;7.85;3.60;;;;;;;;;;5414900;26;20324;-66
2024/04/17 04:14:27;;;;;;;7.45;3.75;;;;;;;;;;5414555;26;20048;-66
2024/04/17 04:16:52;;;;;;;7.05;3.22;;;;;;;;;;5390624;26;20432;-66
2024/04/17 04:19:20;;;;;;;8.63;3.30;;;;;;;;;;5414718;26;20003;-64
2024/04/17 04:21:45;;;;;;;5.93;3.38;;;;;;;;;;5412797;26;20022;-65
2024/04/17 04:24:11;;;;;;;9.68;3.05;;;;;;;;;;5414283;26;20002;-66
2024/04/17 04:26:36;;;;;;;5.95;3.03;;;;;;;;;;5415094;26;20025;-65
2024/04/17 04:29:01;;;;;;;7.18;3.38;;;;;;;;;;5414884;26;20376;-66
2024/04/17 04:31:33;;;;;;;6.80;3.03;;;;;;;;;;5414250;26;20460;-66
2024/04/17 04:33:58;;;;;;;6.28;3.10;;;;;;;;;;5415685;26;19996;-64
2024/04/17 04:36:23;;;;;;;7.38;3.28;;;;;;;;;;5411027;26;20068;-64
2024/04/17 04:38:49;;;;;;;4.88;2.80;;;;;;;;;;5413634;26;19999;-66
2024/04/17 04:41:14;;;;;;;6.15;2.72;;;;;;;;;;5414510;26;19999;-67
2024/04/17 04:43:40;;;;;;;5.65;2.65;;;;;;;;;;5414229;26;20095;-67
2024/04/17 04:46:05;;;;;;;9.50;2.97;;;;;;;;;;5417068;26;19995;-66
2024/04/17 04:48:30;;;;;;;4.43;2.28;;;;;;;;;;5415032;26;20717;-64
2024/04/17 04:50:56;;;;;;;5.28;2.50;;;;;;;;;;5414095;26;20015;-65
2024/04/17 04:53:22;;;;;;;6.38;2.58;;;;;;;;;;5410353;26;20046;-64
2024/04/17 04:55:55;;;;;;;5.65;3.03;;;;;;;;;;5415358;26;19995;-64
2024/04/17 04:58:20;;;;;;;7.00;2.78;;;;;;;;;;5396167;26;20591;-64
2024/04/17 05:00:45;;;;;;;5.72;2.20;;;;;;;;;;5415564;26;20010;-64
2024/04/17 05:03:11;;;;;;;6.57;2.67;;;;;;;;;;5416992;26;20003;-64
2024/04/17 05:05:36;;;;;;;4.43;2.25;;;;;;;;;;5413637;26;19991;-65
2024/04/17 05:08:01;;;;;;;5.93;2.15;;;;;;;;;;5409206;26;20058;-65
2024/04/17 05:10:26;;;;;;;5.65;2.35;;;;;;;;;;5414016;26;20028;-63
2024/04/17 05:12:52;;;;;;;5.65;2.05;;;;;;;;;;5412267;26;20008;-64
2024/04/17 05:15:17;;;;;;;4.55;1.90;;;;;;;;;;5394273;26;20003;-63
2024/04/17 05:17:42;;;;;;;5.78;1.67;;;;;;;;;;5410494;26;20006;-64
2024/04/17 05:20:08;;;;;;;5.25;2.15;;;;;;;;;;5417901;26;20489;-64
2024/04/17 05:22:33;;;;;;;5.07;2.38;;;;;;;;;;5412544;26;20006;-63
2024/04/17 05:24:59;;;;;;;4.35;1.90;;;;;;;;;;5415494;26;20338;-63
2024/04/17 05:27:24;;;;;;;5.00;2.03;;;;;;;;;;5413688;26;20595;-64
2024/04/17 05:29:49;;;;;;;3.60;1.73;;;;;;;;;;5419666;26;20007;-64
2024/04/17 05:32:15;;;;;;;3.83;1.75;;;;;;;;;;5414506;26;20010;-65
2024/04/17 05:34:40;;;;;;;4.47;2.00;;;;;;;;;;5411092;26;20010;-65
2024/04/17 05:37:05;;;;;;;4.22;1.38;;;;;;;;;;5412146;26;20007;-66
2024/04/17 05:39:32;;;;;;;5.97;2.00;;;;;;;;;;5410208;26;19999;-66
2024/04/17 05:42:06;;;;;;;4.00;1.90;;;;;;;;;;5415448;26;20025;-66
2024/04/17 05:44:32;;;;;;;3.90;1.92;;;;;;;;;;5414246;26;20014;-67
2024/04/17 05:46:57;;;;;;;4.15;1.70;;;;;;;;;;5411931;26;20546;-65
2024/04/17 05:49:22;;;;;;;4.55;1.77;;;;;;;;;;5413387;26;20162;-67
2024/04/17 05:51:48;;;;;;;5.68;1.92;;;;;;;;;;5409888;26;20007;-66
2024/04/17 05:54:13;;;;;;;7.88;1.98;;;;;;;;;;5413669;26;20411;-65
2024/04/17 05:56:39;;;;;;;4.43;1.60;;;;;;;;;;5411595;26;20003;-67
2024/04/17 05:59:04;;;;;;;6.65;1.98;;;;;;;;;;5413815;26;20371;-66
2024/04/17 06:01:30;;;;;;;5.90;2.00;;;;;;;;;;5420950;26;19998;-64
2024/04/17 06:03:55;;;;;;;6.10;1.83;;;;;;;;;;5398036;26;20003;-62
2024/04/17 06:06:20;;;;;;;4.90;1.85;;;;;;;;;;5411860;26;20054;-67
2024/04/17 06:08:47;;;;;;;7.82;2.10;;;;;;;;;;5416977;26;20045;-70
2024/04/17 06:11:16;;;;;;;4.13;2.10;;;;;;;;;;5414931;26;19992;-63
2024/04/17 06:13:42;;;;;;;5.17;1.97;;;;;;;;;;5416497;26;20204;-68
2024/04/17 06:16:08;;;;;;;6.47;1.88;;;;;;;;;;5413859;26;20340;-67
2024/04/17 06:18:34;;;;;;;3.75;1.63;;;;;;;;;;5416946;26;20007;-64
2024/04/17 06:20:59;;;;;;;5.05;1.88;;;;;;;;;;5417252;26;19992;-63
2024/04/17 06:23:28;;;;;;;4.07;2.10;;;;;;;;;;5418437;26;20004;-63
2024/04/17 06:25:54;;;;;;;8.68;2.30;;;;;;;;;;5416834;26;19999;-63
2024/04/17 06:28:24;;;;;;;6.10;2.03;;;;;;;;;;5416749;26;22056;-63
2024/04/17 06:30:49;;;;;;;;;;;;;;;;;;5419152;26;20009;-64
2024/04/17 06:33:14;;;;;;;3.73;1.80;;;;;;;;;;5419609;26;19968;-66
2024/04/17 06:35:40;;;;;;;7.13;1.92;;;;;;;;;;5414690;26;20011;-63
2024/04/17 06:38:05;;;;;;;7.97;2.00;;;;;;;;;;5419315;26;20301;-64
2024/04/17 06:40:36;;;;;;;4.55;1.88;;;;;;;;;;5418515;26;20031;-68
2024/04/17 06:43:02;;;;;;;4.88;1.65;;;;;;;;;;5419633;26;20021;-64
2024/04/17 06:45:28;;;;;;;4.15;1.75;;;;;;;;;;5415568;26;20048;-65
2024/04/17 06:47:53;;;;;;;4.22;1.52;;;;;;;;;;5413984;26;20007;-63
2024/04/17 06:50:20;;;;;;;7.30;2.28;;;;;;;;;;5418460;26;19995;-66
2024/04/17 06:52:47;;;;;;;4.57;1.77;;;;;;;;;;5419476;26;20751;-64
2024/04/17 06:55:12;;;;;;;3.50;1.73;;;;;;;;;;5414904;26;20474;-66
2024/04/17 06:57:38;;;;;;;4.47;1.60;;;;;;;;;;5417940;26;19991;-65
2024/04/17 07:00:04;;;;;;;5.82;2.00;;;;;;;;;;5420700;26;20643;-66
2024/04/17 07:02:29;;;;;;;6.22;2.10;;;;;;;;;;5415927;26;20016;-67
2024/04/17 07:04:54;;;;;;;5.78;1.90;;;;;;;;;;5411819;26;20007;-68
2024/04/17 07:07:20;;;;;;;3.35;1.50;;;;;;;;;;5442061;26;20003;-62
2024/04/17 07:09:48;;;;;;;3.72;1.60;;;;;;;;;;5440875;26;20018;-63
2024/04/17 07:12:16;;;;;;;5.60;1.80;;;;;;;;;;5438592;26;19999;-64
2024/04/17 07:14:41;;;;;;;4.05;1.63;;;;;;;;;;5446598;26;19999;-64
2024/04/17 07:17:06;;;;;;;4.93;1.95;;;;;;;;;;5446168;26;20052;-66
2024/04/17 07:19:31;;;;;;;5.15;1.80;;;;;;;;;;5447038;26;20007;-64
2024/04/17 07:21:57;;;;;;;4.65;1.70;;;;;;;;;;5449041;26;20018;-65
2024/04/17 07:24:25;;;;;;;2.88;1.40;;;;;;;;;;5447519;26;20452;-63
2024/04/17 07:26:57;;;;;;;5.30;2.35;;;;;;;;;;5447316;26;20439;-67
2024/04/17 07:29:22;;;;;;;5.50;2.03;;;;;;;;;;5448775;26;20321;-67
2024/04/17 07:31:48;;;;;;;2.80;1.40;;;;;;;;;;5447724;26;20029;-64
2024/04/17 07:34:13;;;;;;;4.95;1.60;;;;;;;;;;5449131;26;20010;-66
2024/04/17 07:36:39;;;;;;;5.25;1.55;;;;;;;;;;5432676;26;20423;-63
2024/04/17 07:39:04;;;;;;;5.60;1.73;;;;;;;;;;5449781;26;20349;-65
2024/04/17 07:41:29;;;;;;;3.38;1.67;;;;;;;;;;5416004;26;20363;-66
2024/04/17 07:43:55;;;;;;;3.20;1.40;;;;;;;;;;5447974;26;20003;-64
2024/04/17 07:46:20;;;;;;;2.65;1.58;;;;;;;;;;5415422;26;20014;-66
2024/04/17 07:48:46;;;;;;;5.25;1.60;;;;;;;;;;5449168;26;20031;-66
2024/04/17 07:51:11;;;;;;;3.72;1.70;;;;;;;;;;5448990;26;20010;-65
2024/04/17 07:53:37;;;;;;;4.28;1.48;;;;;;;;;;5449689;26;19999;-67
2024/04/17 07:56:02;;;;;;;3.17;1.50;;;;;;;;;;5447481;26;20006;-67
2024/04/17 07:58:27;;;;;;;3.88;1.25;;;;;;;;;;5450347;26;20197;-68
2024/04/17 08:00:53;;;;;;;4.15;1.70;;;;;;;;;;5415759;26;19999;-67
2024/04/17 08:03:18;;;;;;;2.90;1.50;;;;;;;;;;5447466;26;20014;-68
2024/04/17 08:05:43;;;;;;;2.80;1.40;;;;;;;;;;5447431;26;20043;-66
2024/04/17 08:08:09;;;;;;;3.63;1.77;;;;;;;;;;5448090;26;20014;-66
2024/04/17 08:10:34;;;;;;;3.20;1.50;;;;;;;;;;5447800;26;20055;-66
2024/04/17 08:13:14;;;;;;;3.58;1.67;;;;;;;;;;5446261;26;20002;-67
2024/04/17 08:15:49;;;;;;;3.60;1.63;;;;;;;;;;5449395;26;20030;-67
2024/04/17 08:18:18;;;;;;;3.33;1.70;;;;;;;;;;5447286;26;20467;-67
2024/04/17 08:20:44;;;;;;;3.47;1.80;;;;;;;;;;5447883;26;19999;-67
2024/04/17 08:23:10;;;;;;;4.40;1.83;;;;;;;;;;5448011;26;20009;-68
2024/04/17 08:25:35;;;;;;;3.28;1.70;;;;;;;;;;5443431;26;19990;-68
2024/04/17 08:28:00;;;;;;;3.80;1.67;;;;;;;;;;5448299;26;19991;-67
2024/04/17 08:30:27;;;;;;;2.88;1.63;;;;;;;;;;5450551;26;19995;-67
2024/04/17 08:32:52;;;;;;;2.78;1.50;;;;;;;;;;5447577;26;20067;-67
2024/04/17 08:35:18;;;;;;;3.70;1.38;;;;;;;;;;5439138;26;20007;-64
2024/04/17 08:37:43;;;;;;;3.92;1.90;;;;;;;;;;5419962;26;19999;-66
2024/04/17 08:40:09;;;;;;;3.35;1.80;;;;;;;;;;5451019;26;20428;-66
2024/04/17 08:42:35;;;;;;;2.88;1.38;;;;;;;;;;5449818;26;20014;-65
2024/04/17 08:45:02;;;;;;;3.00;1.67;;;;;;;;;;5449819;26;20142;-67
2024/04/17 08:47:27;;;;;;;3.28;1.60;;;;;;;;;;5408933;26;20002;-67
2024/04/17 08:49:53;;;;;;;3.25;1.60;;;;;;;;;;5450436;26;19995;-64
2024/04/17 08:52:18;;;;;;;2.40;1.48;;;;;;;;;;5404832;26;20111;-64
2024/04/17 08:54:44;;;;;;;3.03;1.63;;;;;;;;;;5415638;26;19999;-64
2024/04/17 08:57:10;;;;;;;3.67;1.58;;;;;;;;;;5415520;26;20076;-64
2024/04/17 08:59:45;;;;;;;3.58;1.60;;;;;;;;;;5447677;26;19999;-64
2024/04/17 09:02:13;;;;;;;3.17;1.80;;;;;;;;;;5447410;26;19999;-65
2024/04/17 09:04:47;;;;;;;3.97;1.50;;;;;;;;;;5447252;26;20340;-65
2024/04/17 09:07:13;;;;;;;3.95;1.70;;;;;;;;;;5412693;26;20010;-64
2024/04/17 09:09:41;;;;;;;2.80;1.42;;;;;;;;;;5427076;26;19996;-65
2024/04/17 09:12:07;;;;;;;2.72;1.42;;;;;;;;;;5416737;26;19999;-66
2024/04/17 09:14:33;;;;;;;3.30;1.35;;;;;;;;;;5371681;26;20010;-63
2024/04/17 09:16:58;;;;;;;3.35;1.85;;;;;;;;;;5415302;26;20004;-64
2024/04/17 09:19:24;;;;;;;3.33;1.85;;;;;;;;;;5420569;26;20138;-66
2024/04/17 09:21:52;;;;;;;3.47;1.38;;;;;;;;;;5413003;26;20063;-69
2024/04/17 09:24:18;;;;;;;3.60;1.60;;;;;;;;;;5413072;26;19995;-66
2024/04/17 09:26:43;;;;;;;4.32;1.33;;;;;;;;;;5414223;26;20035;-64
2024/04/17 09:29:09;;;;;;;3.08;1.55;;;;;;;;;;5417214;26;20454;-66
2024/04/17 09:31:34;;;;;;;3.03;1.48;;;;;;;;;;5418144;26;20027;-68
2024/04/17 09:34:00;;;;;;;4.20;1.63;;;;;;;;;;5420143;26;20153;-68
2024/04/17 09:36:27;;;;;;;2.70;1.27;;;;;;;;;;5402515;26;20344;-67
2024/04/17 09:38:52;;;;;;;3.00;1.40;;;;;;;;;;5416073;26;20042;-67
2024/04/17 09:41:17;;;;;;;2.75;1.58;;;;;;;;;;5419612;26;20105;-67
2024/04/17 09:43:44;;;;;;;2.88;1.42;;;;;;;;;;5416327;26;23022;-66
2024/04/17 09:46:10;;;;;;;2.85;1.30;;;;;;;;;;5395001;26;20332;-64
2024/04/17 09:48:35;;;;;;;3.25;1.40;;;;;;;;;;5445035;26;20010;-67
2024/04/17 09:51:10;;;;;;;3.47;1.63;;;;;;;;;;5417154;26;19995;-67
2024/04/17 09:53:36;;;;;;;1.85;1.40;;;;;;;;;;5417932;26;20143;-66
2024/04/17 09:56:02;;;;;;;3.63;1.58;;;;;;;;;;5415812;26;20077;-65
2024/04/17 09:58:34;;;;;;;3.60;1.40;;;;;;;;;;5388938;26;20692;-65
2024/04/17 10:01:02;;;;;;;2.67;1.27;;;;;;;;;;5393392;26;20004;-66
2024/04/17 10:03:29;;;;;;;3.25;1.35;;;;;;;;;;5419008;26;20019;-66
2024/04/17 10:05:55;;;;;;;2.83;1.02;;;;;;;;;;5419946;26;20036;-66
2024/04/17 10:08:20;;;;;;;2.55;1.30;;;;;;;;;;5403220;26;19998;-67
2024/04/17 10:10:45;;;;;;;1.92;1.10;;;;;;;;;;5452471;26;20032;-67
2024/04/17 10:13:11;;;;;;;2.45;1.30;;;;;;;;;;5402863;26;20066;-68
2024/04/17 10:15:38;;;;;;;3.17;1.48;;;;;;;;;;5389247;26;19999;-68
2024/04/17 10:18:03;;;;;;;5.10;1.45;;;;;;;;;;5419190;26;20205;-71
2024/04/17 10:20:29;;;;;;;1.92;1.10;;;;;;;;;;5418313;26;20117;-66
2024/04/17 10:23:06;;;;;;;2.60;1.35;;;;;;;;;;5417223;26;20035;-69
2024/04/17 10:25:32;;;;;;;3.42;1.30;;;;;;;;;;5418525;26;20068;-71
2024/04/17 10:28:01;;;;;;;2.53;1.30;;;;;;;;;;5415710;26;20437;-69
2024/04/17 10:30:26;;;;;;;2.40;1.35;;;;;;;;;;5391556;26;20389;-67
2024/04/17 10:32:52;;;;;;;3.80;1.20;;;;;;;;;;5420706;26;20013;-69
2024/04/17 10:35:17;;;;;;;2.53;1.40;;;;;;;;;;5415041;26;19995;-70
2024/04/17 10:37:47;;;;;;;3.33;1.50;;;;;;;;;;5421297;26;20019;-65
2024/04/17 10:40:12;;;;;;;1.92;1.20;;;;;;;;;;5417552;26;20431;-65
2024/04/17 10:42:38;;;;;;;3.30;1.42;;;;;;;;;;5421198;26;20000;-65
2024/04/17 10:45:03;;;;;;;3.35;1.35;;;;;;;;;;5417051;26;20091;-67
2024/04/17 10:47:29;;;;;;;3.35;1.45;;;;;;;;;;5392640;26;20015;-65
2024/04/17 10:49:57;;;;;;;2.75;1.20;;;;;;;;;;5416689;26;20124;-67
2024/04/17 10:52:23;;;;;;;3.22;1.13;;;;;;;;;;5415240;26;20321;-68
2024/04/17 10:54:48;;;;;;;2.88;1.10;;;;;;;;;;5444958;26;20007;-66
2024/04/17 10:57:15;;;;;;;3.60;1.40;;;;;;;;;;5413970;26;19995;-67
2024/04/17 10:59:47;;;;;;;3.15;1.40;;;;;;;;;;5399177;26;20993;-64
2024/04/17 11:02:13;;;;;;;2.55;1.10;;;;;;;;;;5362993;26;19991;-64
2024/04/17 11:04:47;;;;;;;4.53;1.30;;;;;;;;;;5416036;26;20016;-62
2024/04/17 11:07:14;;;;;;;2.85;1.38;;;;;;;;;;5417196;26;20013;-62
2024/04/17 11:09:43;;;;;;;5.15;1.60;;;;;;;;;;5441316;26;20058;-63
2024/04/17 11:12:15;;;;;;;6.03;1.55;;;;;;;;;;5417610;26;20096;-63
2024/04/17 11:14:41;;;;;;;4.75;1.38;;;;;;;;;;5417032;26;19991;-64
2024/04/17 11:17:07;;;;;;;3.72;1.13;;;;;;;;;;5418582;26;20010;-64
2024/04/17 11:19:33;;;;;;;4.35;1.23;;;;;;;;;;5441988;26;19999;-64
2024/04/17 11:21:58;;;;;;;4.05;1.58;;;;;;;;;;5394749;26;20072;-61
2024/04/17 11:24:23;;;;;;;3.92;1.33;;;;;;;;;;5391750;26;20340;-63
2024/04/17 11:26:52;;;;;;;4.13;1.00;;;;;;;;;;5417257;26;20009;-62
2024/04/17 11:29:19;;;;;;;2.70;1.23;;;;;;;;;;5416163;26;19998;-63
2024/04/17 11:31:44;;;;;;;4.75;1.15;;;;;;;;;;5414075;26;20042;-64
2024/04/17 11:34:19;;;;;;;2.72;1.10;;;;;;;;;;5394863;26;20537;-62
2024/04/17 11:36:46;;;;;;;3.70;1.17;;;;;;;;;;5381294;26;20439;-62
2024/04/17 11:39:11;;;;;;;4.03;1.08;;;;;;;;;;5395030;26;20003;-64
2024/04/17 11:41:36;;;;;;;4.30;1.25;;;;;;;;;;5391263;26;20170;-64
2024/04/17 11:44:05;;;;;;;4.65;1.13;;;;;;;;;;5415774;26;20388;-63
2024/04/17 11:46:30;;;;;;;3.55;1.10;;;;;;;;;;5418450;26;20052;-63
2024/04/17 11:48:55;;;;;;;2.45;1.00;;;;;;;;;;5415907;26;20007;-64
2024/04/17 11:51:21;;;;;;;3.97;1.30;;;;;;;;;;5390730;26;20007;-63
2024/04/17 11:53:46;;;;;;;3.90;1.25;;;;;;;;;;5416134;26;20047;-64
2024/04/17 11:56:11;;;;;;;2.58;0.70;;;;;;;;;;5392999;26;20068;-64
2024/04/17 11:58:36;;;;;;;3.03;1.00;;;;;;;;;;5392813;26;20028;-65
2024/04/17 12:01:02;;;;;;;2.63;0.90;;;;;;;;;;5414114;26;19991;-63
2024/04/17 12:03:30;;;;;;;2.55;1.10;;;;;;;;;;5411721;26;20137;-62
2024/04/17 12:05:56;;;;;;;3.72;1.00;;;;;;;;;;5413190;26;20011;-62
2024/04/17 12:08:21;;;;;;;4.45;0.80;;;;;;;;;;5414912;26;20033;-64
2024/04/17 12:10:47;;;;;;;2.75;0.85;;;;;;;;;;5416998;26;20467;-63
2024/04/17 12:13:22;;;;;;;2.00;0.80;;;;;;;;;;5414993;26;20023;-63
2024/04/17 12:15:47;;;;;;;2.08;0.80;;;;;;;;;;5435398;26;20614;-63
2024/04/17 12:18:13;;;;;;;3.60;0.80;;;;;;;;;;5437448;26;20321;-63
2024/04/17 12:20:39;;;;;;;1.30;0.50;;;;;;;;;;5437805;26;20018;-65
2024/04/17 12:23:04;;;;;;;2.75;0.70;;;;;;;;;;5409066;26;20659;-66
2024/04/17 12:28:13;;;;;;;1.80;0.70;;;;;;;;;;5419515;26;20054;-63
2024/04/17 12:30:38;;;;;;;1.88;0.63;;;;;;;;;;5416147;26;20582;-64
2024/04/17 12:33:04;;;;;;;1.88;0.90;;;;;;;;;;5411897;26;20003;-64
2024/04/17 12:35:32;;;;;;;2.40;0.73;;;;;;;;;;5412286;26;19999;-60
2024/04/17 12:37:57;;;;;;;2.20;0.82;;;;;;;;;;5417344;26;20131;-64
2024/04/17 12:40:22;;;;;;;2.53;0.60;;;;;;;;;;5413069;26;20509;-66
2024/04/17 12:42:48;;;;;;;2.05;0.73;;;;;;;;;;5414773;26;19995;-63
2024/04/17 12:45:13;;;;;;;2.33;0.65;;;;;;;;;;5414080;26;20363;-61
2024/04/17 12:47:39;;;;;;;3.38;0.80;;;;;;;;;;5389576;26;20567;-61
2024/04/17 12:50:04;;;;;;;4.15;0.60;;;;;;;;;;5414070;26;20014;-63
2024/04/17 12:52:32;;;;;;;2.08;0.60;;;;;;;;;;5416516;26;19991;-62
2024/04/17 12:54:57;;;;;;;3.15;0.70;;;;;;;;;;5416054;26;20007;-62
2024/04/17 12:57:23;;;;;;;2.03;0.60;;;;;;;;;;5413998;26;19996;-63
2024/04/17 12:59:48;;;;;;;2.80;0.70;;;;;;;;;;5414341;26;20019;-63
2024/04/17 13:02:13;;;;;;;2.45;0.70;;;;;;;;;;5413049;26;20072;-60
2024/04/17 13:04:39;;;;;;;3.05;0.47;;;;;;;;;;5412842;26;19999;-62
2024/04/17 13:07:04;;;;;;;3.58;0.90;;;;;;;;;;5392138;26;20020;-61
2024/04/17 13:09:30;;;;;;;3.55;0.80;;;;;;;;;;5413095;26;20096;-59
2024/04/17 13:11:55;;;;;;;4.13;0.52;;;;;;;;;;5413940;26;20015;-61
2024/04/17 13:14:20;;;;;;;1.83;0.68;;;;;;;;;;5411340;26;20435;-62
2024/04/17 13:16:51;;;;;;;2.63;0.65;;;;;;;;;;5414470;26;20000;-60
2024/04/17 13:19:16;;;;;;;2.15;0.73;;;;;;;;;;5414779;26;20009;-64
2024/04/17 13:21:42;;;;;;;2.05;0.47;;;;;;;;;;5415083;26;20035;-60
2024/04/17 13:24:07;;;;;;;2.65;0.55;;;;;;;;;;5416575;26;19994;-64
2024/04/17 13:26:32;;;;;;;1.10;0.50;;;;;;;;;;5414154;26;20329;-62
2024/04/17 13:28:58;;;;;;;3.05;0.50;;;;;;;;;;5414091;26;20089;-65
2024/04/17 13:31:23;;;;;;;2.05;0.60;;;;;;;;;;5415497;26;20016;-62
2024/04/17 13:33:48;;;;;;;2.72;0.70;;;;;;;;;;5414639;26;20019;-62
2024/04/17 13:36:14;;;;;;;2.20;0.52;;;;;;;;;;5413880;26;20018;-64
2024/04/17 13:38:40;;;;;;;1.73;0.52;;;;;;;;;;5388604;26;20069;-61
2024/04/17 13:41:06;;;;;;;2.17;0.40;;;;;;;;;;5413217;26;20088;-62
2024/04/17 13:43:35;;;;;;;2.05;0.73;;;;;;;;;;5394622;26;20334;-64
2024/04/17 13:46:10;;;;;;;0.95;0.30;;;;;;;;;;5382624;26;19991;-59
2024/04/17 13:48:35;;;;;;;1.50;0.40;;;;;;;;;;5387928;26;20019;-62
2024/04/17 13:51:10;;;;;;;2.30;0.50;;;;;;;;;;5413537;26;20011;-62
2024/04/17 13:53:36;;;;;;;1.92;0.30;;;;;;;;;;5414245;26;20006;-63
2024/04/17 13:56:01;;;;;;;1.88;0.70;;;;;;;;;;5389958;26;20459;-60
2024/04/17 13:58:27;;;;;;;1.05;0.30;;;;;;;;;;5415550;26;20011;-63
2024/04/17 14:00:52;;;;;;;2.47;0.50;;;;;;;;;;5413305;26;20015;-61
2024/04/17 14:03:18;;;;;;;1.48;0.40;;;;;;;;;;5415683;26;20215;-62
2024/04/17 14:05:43;;;;;;;1.98;0.75;;;;;;;;;;5418853;26;19999;-61
2024/04/17 14:08:09;;;;;;;1.48;0.55;;;;;;;;;;5397815;26;20007;-62
2024/04/17 14:10:34;;;;;;;0.98;0.30;;;;;;;;;;5412324;26;19998;-65
2024/04/17 14:13:00;;;;;;;1.52;0.50;;;;;;;;;;5410643;26;20072;-60
2024/04/17 14:15:25;;;;;;;1.58;0.30;;;;;;;;;;5415463;26;19995;-65
2024/04/17 14:17:51;;;;;;;1.77;0.50;;;;;;;;;;5417794;26;20003;-64
2024/04/17 14:20:17;;;;;;;2.15;0.43;;;;;;;;;;5417320;26;20035;-62
2024/04/17 14:22:42;;;;;;;1.48;0.40;;;;;;;;;;5416202;26;20048;-60
2024/04/17 14:25:08;;;;;;;2.53;0.35;;;;;;;;;;5411548;26;20008;-61
2024/04/17 14:27:33;;;;;;;2.22;0.35;;;;;;;;;;5417481;26;20105;-61
2024/04/17 14:29:58;;;;;;;1.75;0.50;;;;;;;;;;5397783;26;19992;-63
2024/04/17 14:32:30;;;;;;;3.30;0.50;;;;;;;;;;5417188;26;20014;-62
2024/04/17 14:34:55;;;;;;;1.63;0.60;;;;;;;;;;5415712;26;20006;-63
2024/04/17 14:37:21;;;;;;;1.40;0.47;;;;;;;;;;5418389;26;20297;-62
2024/04/17 14:39:47;;;;;;;1.75;0.57;;;;;;;;;;5418639;26;20093;-60